createdAt,value
2019-02-26T00:03:04.701Z,4.7
2019-02-26T00:08:04.819Z,4.7
2019-02-26T00:12:28.676Z,4.6
2019-02-26T00:17:28.499Z,4.5
2019-02-26T00:22:29.936Z,4.5
2019-02-26T00:27:30.122Z,4.5
2019-02-26T00:32:27.420Z,4.4
2019-02-26T00:37:28.403Z,4.3
2019-02-26T00:42:28.751Z,4.3
2019-02-26T00:47:29.841Z,4.2
2019-02-26T00:52:28.617Z,4.2
2019-02-26T00:57:27.255Z,4.1
2019-02-26T01:02:27.738Z,4.0
2019-02-26T01:07:28.186Z,3.9
2019-02-26T01:12:27.595Z,3.9
2019-02-26T01:17:27.959Z,3.8
2019-02-26T01:22:27.729Z,3.7
2019-02-26T01:27:28.113Z,3.7
2019-02-26T01:32:29.156Z,3.7
2019-02-26T01:37:28.322Z,3.6
2019-02-26T01:42:28.921Z,3.6
2019-02-26T01:47:28.475Z,3.5
2019-02-26T01:52:27.825Z,3.5
2019-02-26T01:57:28.495Z,3.5
2019-02-26T02:02:29.709Z,3.3
2019-02-26T02:07:30.564Z,3.2
2019-02-26T02:12:30.027Z,3.2
2019-02-26T02:17:28.758Z,3.2
2019-02-26T02:22:29.428Z,3.1
2019-02-26T02:27:27.980Z,3.2
2019-02-26T02:32:31.269Z,3.2
2019-02-26T02:37:29.865Z,3.0
2019-02-26T02:42:28.496Z,3.0
2019-02-26T02:47:31.341Z,3.0
2019-02-26T02:52:30.221Z,2.9
2019-02-26T02:57:29.412Z,2.8
2019-02-26T03:02:27.470Z,2.8
2019-02-26T03:07:29.411Z,2.7
2019-02-26T03:12:27.558Z,2.7
2019-02-26T03:17:28.776Z,2.7
2019-02-26T03:22:27.838Z,2.6
2019-02-26T03:27:28.312Z,2.6
2019-02-26T03:32:27.962Z,2.5
2019-02-26T03:37:28.684Z,2.4
2019-02-26T03:42:27.943Z,2.4
2019-02-26T03:47:28.817Z,2.4
2019-02-26T03:52:28.932Z,2.4
2019-02-26T03:57:27.688Z,2.4
2019-02-26T04:02:28.429Z,2.4
2019-02-26T04:07:30.217Z,2.4
2019-02-26T04:12:27.752Z,2.3
2019-02-26T04:17:30.714Z,2.3
2019-02-26T04:22:27.730Z,2.3
2019-02-26T04:27:30.586Z,2.3
2019-02-26T04:32:27.830Z,2.3
2019-02-26T04:37:30.565Z,2.3
2019-02-26T04:42:27.722Z,2.2
2019-02-26T04:47:29.891Z,2.2
2019-02-26T04:52:29.337Z,2.1
2019-02-26T04:57:28.302Z,2.1
2019-02-26T05:02:27.427Z,2.1
2019-02-26T05:07:28.156Z,2.1
2019-02-26T05:12:30.871Z,2.1
2019-02-26T05:17:30.207Z,2.1
2019-02-26T05:22:30.103Z,2.1
2019-02-26T05:27:27.460Z,2.1
2019-02-26T05:32:30.703Z,2.0
2019-02-26T05:37:29.020Z,2.0
2019-02-26T05:42:27.904Z,1.9
2019-02-26T05:47:28.434Z,1.9
2019-02-26T05:52:30.532Z,1.8
2019-02-26T05:57:32.461Z,1.8
2019-02-26T06:02:28.833Z,1.7
2019-02-26T06:07:31.097Z,1.8
2019-02-26T06:12:27.908Z,1.8
2019-02-26T06:17:29.789Z,1.8
2019-02-26T06:22:31.220Z,1.8
2019-02-26T06:27:30.102Z,1.8
2019-02-26T06:32:31.952Z,1.7
2019-02-26T06:37:30.795Z,1.8
2019-02-26T06:42:30.324Z,1.8
2019-02-26T06:47:30.608Z,2.0
2019-02-26T06:52:29.844Z,2.1
2019-02-26T06:57:28.767Z,2.3
2019-02-26T07:02:29.132Z,2.5
2019-02-26T07:07:28.176Z,2.6
2019-02-26T07:12:27.979Z,2.8
2019-02-26T07:17:29.716Z,3.1
2019-02-26T07:22:28.649Z,3.5
2019-02-26T07:27:29.469Z,3.7
2019-02-26T07:32:28.029Z,3.9
2019-02-26T07:37:28.575Z,4.2
2019-02-26T07:42:28.069Z,4.5
2019-02-26T07:47:30.894Z,4.9
2019-02-26T07:52:30.251Z,5.2
2019-02-26T07:57:28.196Z,5.2
2019-02-26T08:02:30.128Z,5.4
2019-02-26T08:07:28.959Z,5.9
2019-02-26T08:12:28.178Z,5.9
2019-02-26T08:17:28.064Z,6.4
2019-02-26T08:22:29.943Z,6.9
2019-02-26T08:27:30.741Z,7.3
2019-02-26T08:32:30.361Z,8.0
2019-02-26T08:37:28.719Z,7.9
2019-02-26T08:42:27.528Z,8.3
2019-02-26T08:47:28.741Z,8.6
2019-02-26T08:52:29.336Z,8.8
2019-02-26T08:57:28.404Z,9.1
2019-02-26T09:02:30.342Z,9.5
2019-02-26T09:07:28.437Z,9.7
2019-02-26T09:12:27.773Z,10.1
2019-02-26T09:17:30.345Z,10.7
2019-02-26T09:22:28.802Z,11.1
2019-02-26T09:27:29.459Z,11.1
2019-02-26T09:32:29.718Z,11.7
2019-02-26T09:37:29.911Z,11.8
2019-02-26T09:42:30.113Z,12.2
2019-02-26T09:47:30.396Z,13.0
2019-02-26T09:52:30.239Z,12.9
2019-02-26T09:57:28.623Z,13.4
2019-02-26T10:02:28.744Z,14.0
2019-02-26T10:07:30.319Z,14.0
2019-02-26T10:12:29.807Z,14.4
2019-02-26T10:17:28.584Z,15.4
2019-02-26T10:22:28.782Z,15.3
2019-02-26T10:27:31.297Z,15.9
2019-02-26T10:32:28.384Z,16.3
2019-02-26T10:37:31.162Z,16.7
2019-02-26T10:42:28.972Z,17.1
2019-02-26T10:47:31.871Z,17.4
2019-02-26T10:52:28.789Z,17.8
2019-02-26T10:57:28.798Z,18.2
2019-02-26T11:02:27.992Z,18.5
2019-02-26T11:07:29.162Z,18.8
2019-02-26T11:12:30.684Z,19.2
2019-02-26T11:17:29.462Z,19.5
2019-02-26T11:22:28.203Z,20.0
2019-02-26T11:27:29.129Z,20.0
2019-02-26T11:32:30.084Z,20.3
2019-02-26T11:37:29.478Z,20.5
2019-02-26T11:42:28.722Z,20.6
2019-02-26T11:47:29.432Z,20.9
2019-02-26T11:52:30.067Z,21.2
2019-02-26T11:57:30.187Z,21.5
2019-02-26T12:02:31.866Z,21.8
2019-02-26T12:07:29.749Z,21.9
2019-02-26T12:12:31.001Z,22.3
2019-02-26T12:17:28.126Z,22.6
2019-02-26T12:22:29.867Z,23.2
2019-02-26T12:27:28.835Z,23.2
2019-02-26T12:32:29.598Z,23.5
2019-02-26T12:37:29.167Z,23.6
2019-02-26T12:42:28.171Z,23.7
2019-02-26T12:47:29.360Z,23.8
2019-02-26T12:52:30.343Z,24.0
2019-02-26T12:57:31.068Z,24.2
2019-02-26T13:02:28.704Z,24.4
2019-02-26T13:07:28.717Z,24.5
2019-02-26T13:12:29.471Z,25.2
2019-02-26T13:17:32.199Z,25.1
2019-02-26T13:22:27.940Z,25.5
2019-02-26T13:27:28.427Z,25.6
2019-02-26T13:32:32.098Z,26.2
2019-02-26T13:37:32.281Z,26.1
2019-02-26T13:42:29.759Z,26.9
2019-02-26T13:47:29.163Z,27.2
2019-02-26T13:52:28.145Z,27.2
2019-02-26T13:57:29.671Z,27.5
2019-02-26T14:02:28.581Z,27.8
2019-02-26T14:07:28.670Z,28.1
2019-02-26T14:12:29.317Z,28.6
2019-02-26T14:17:28.767Z,29.8
2019-02-26T14:22:28.967Z,29.7
2019-02-26T14:27:28.833Z,30.0
2019-02-26T14:32:29.587Z,30.7
2019-02-26T14:37:28.100Z,31.8
2019-02-26T14:42:28.536Z,32.9
2019-02-26T14:47:30.075Z,34.3
2019-02-26T14:52:28.186Z,35.7
2019-02-26T14:57:28.685Z,38.1
2019-02-26T15:02:28.010Z,38.0
2019-02-26T15:07:28.492Z,38.0
2019-02-26T15:12:27.929Z,38.0
2019-02-26T15:17:28.478Z,38.4
2019-02-26T15:22:29.140Z,39.2
2019-02-26T15:27:35.864Z,39.5
2019-02-26T15:32:29.073Z,39.6
2019-02-26T15:37:28.623Z,39.6
2019-02-26T15:42:28.240Z,40.3
2019-02-26T15:47:30.455Z,40.1
2019-02-26T15:52:27.962Z,39.9
2019-02-26T15:57:28.541Z,39.9
2019-02-26T16:02:29.227Z,40.3
2019-02-26T16:07:28.428Z,40.0
2019-02-26T16:12:28.678Z,40.0
2019-02-26T16:17:28.917Z,38.6
2019-02-26T16:22:28.604Z,38.5
2019-02-26T16:27:28.354Z,37.8
2019-02-26T16:32:28.512Z,36.6
2019-02-26T16:37:28.073Z,36.9
2019-02-26T16:42:28.324Z,37.1
2019-02-26T16:47:29.292Z,36.3
2019-02-26T16:52:28.275Z,34.9
2019-02-26T16:57:28.989Z,32.7
2019-02-26T17:02:28.641Z,30.2
2019-02-26T17:07:28.747Z,25.6
2019-02-26T17:12:29.129Z,24.0
2019-02-26T17:17:28.992Z,23.9
2019-02-26T17:22:29.039Z,22.8
2019-02-26T17:27:28.069Z,21.8
2019-02-26T17:32:29.057Z,21.0
2019-02-26T17:37:28.691Z,20.2
2019-02-26T17:42:28.662Z,18.4
2019-02-26T17:47:28.847Z,18.4
2019-02-26T17:52:28.727Z,17.8
2019-02-26T17:57:28.490Z,17.3
2019-02-26T18:02:28.950Z,16.7
2019-02-26T18:07:28.195Z,16.2
2019-02-26T18:12:27.850Z,15.3
2019-02-26T18:17:28.791Z,15.3
2019-02-26T18:22:28.066Z,15.1
2019-02-26T18:27:30.447Z,14.8
2019-02-26T18:32:27.853Z,14.6
2019-02-26T18:37:28.602Z,14.1
2019-02-26T18:42:27.932Z,14.0
2019-02-26T18:47:27.757Z,13.9
2019-02-26T18:52:27.574Z,13.7
2019-02-26T18:57:27.815Z,13.5
2019-02-26T19:02:27.965Z,13.2
2019-02-26T19:07:27.995Z,13.0
2019-02-26T19:12:30.211Z,12.8
2019-02-26T19:17:28.195Z,12.5
2019-02-26T19:22:27.354Z,12.3
2019-02-26T19:27:28.266Z,12.1
2019-02-26T19:32:29.097Z,11.9
2019-02-26T19:37:27.812Z,11.5
2019-02-26T19:42:28.089Z,11.4
2019-02-26T19:47:27.282Z,11.3
2019-02-26T19:52:27.722Z,11.1
2019-02-26T19:57:30.102Z,10.7
2019-02-26T20:02:31.299Z,10.6
2019-02-26T20:07:29.727Z,10.6
2019-02-26T20:12:28.699Z,10.2
2019-02-26T20:17:28.080Z,10.0
2019-02-26T20:22:30.250Z,9.9
2019-02-26T20:27:30.201Z,9.9
2019-02-26T20:32:30.821Z,9.7
2019-02-26T20:37:28.319Z,9.6
2019-02-26T20:42:28.909Z,9.5
2019-02-26T20:47:31.160Z,9.3
2019-02-26T20:52:32.616Z,9.2
2019-02-26T20:57:28.106Z,9.0
2019-02-26T21:02:28.682Z,8.9
2019-02-26T21:07:28.110Z,8.8
2019-02-26T21:12:28.749Z,8.8
2019-02-26T21:17:28.479Z,8.8
2019-02-26T21:22:28.522Z,8.7
2019-02-26T21:27:29.193Z,8.6
2019-02-26T21:32:27.988Z,8.5
2019-02-26T21:37:27.885Z,8.4
2019-02-26T21:42:28.984Z,8.3
2019-02-26T21:47:27.683Z,8.1
2019-02-26T21:52:28.216Z,8.0
2019-02-26T21:57:28.233Z,7.9
2019-02-26T22:02:27.610Z,7.8
2019-02-26T22:07:28.041Z,7.7
2019-02-26T22:12:28.301Z,7.6
2019-02-26T22:17:28.603Z,7.5
2019-02-26T22:22:27.781Z,7.4
2019-02-26T22:27:27.925Z,7.2
2019-02-26T22:32:28.034Z,7.2
2019-02-26T22:37:27.256Z,7.1
2019-02-26T22:42:27.908Z,7.0
2019-02-26T22:47:29.370Z,6.9
2019-02-26T22:52:30.585Z,6.8
2019-02-26T22:57:29.736Z,6.5
2019-02-26T23:02:28.017Z,6.4
2019-02-26T23:07:28.701Z,6.4
2019-02-26T23:12:27.551Z,6.3
2019-02-26T23:22:45.010Z,6.0
2019-02-26T23:27:46.013Z,6.0
2019-02-26T23:32:44.023Z,6.0
2019-02-26T23:37:44.380Z,5.9
2019-02-26T23:42:43.768Z,5.8
2019-02-26T23:47:43.931Z,5.8
2019-02-26T23:52:46.501Z,5.6
2019-02-26T23:57:43.379Z,5.5
